Aviation Digital Data Service (ADDS)

Output produced by TAFs form (1137 UTC 27 August 2016)
found at http://aviationweather.gov/adds/tafs/
 
KLVS 271136Z 2712/2812 21008KT P6SM BKN080 
     FM271800 22012G20KT P6SM BKN080 
     FM272200 21012G22KT P6SM VCTS OVC070CB 
     FM280100 18010KT P6SM VCSH OVC060 
     FM280400 19007KT P6SM BKN080